createdAt,value
2022-08-20T00:03:39.238Z,51.26
2022-08-20T00:08:31.761Z,51.35
2022-08-20T00:13:24.568Z,51.4
2022-08-20T00:18:16.998Z,51.44
2022-08-20T00:23:10.560Z,51.73
2022-08-20T00:28:01.974Z,51.64
2022-08-20T00:32:54.562Z,51.45
2022-08-20T00:37:47.030Z,51.72
2022-08-20T00:42:39.476Z,51.95
2022-08-20T00:47:32.355Z,51.87
2022-08-20T00:52:24.857Z,52.01
2022-08-20T00:57:17.305Z,51.72
2022-08-20T01:02:10.076Z,51.52
2022-08-20T01:07:02.854Z,51.84
2022-08-20T01:11:55.078Z,51.93
2022-08-20T01:16:47.585Z,51.81
2022-08-20T01:21:41.076Z,51.93
2022-08-20T01:26:33.539Z,51.86
2022-08-20T01:31:26.322Z,51.9
2022-08-20T01:41:11.393Z,51.91
2022-08-20T01:50:56.746Z,51.75
2022-08-20T02:00:42.049Z,51.72
2022-08-20T02:05:34.684Z,52.21
2022-08-20T02:10:27.240Z,52.07
2022-08-20T02:15:25.472Z,51.89
2022-08-20T02:20:12.471Z,51.94
2022-08-20T02:25:05.014Z,51.99
2022-08-20T02:29:57.855Z,51.78
2022-08-20T02:34:50.050Z,51.79
2022-08-20T02:39:42.610Z,51.66
2022-08-20T02:44:35.050Z,51.68
2022-08-20T02:49:27.891Z,51.67
2022-08-20T02:54:20.395Z,51.78
2022-08-20T02:59:12.527Z,51.81
2022-08-20T03:04:04.900Z,52.09
2022-08-20T03:08:57.348Z,51.99
2022-08-20T03:13:50.086Z,51.86
2022-08-20T03:18:42.714Z,52.13
2022-08-20T03:23:35.315Z,52.25
2022-08-20T03:28:27.850Z,52.01
2022-08-20T03:33:20.277Z,51.95
2022-08-20T03:38:12.865Z,51.92
2022-08-20T03:43:05.431Z,51.9
2022-08-20T03:47:58.332Z,51.87
2022-08-20T03:52:50.679Z,51.91
2022-08-20T03:57:43.007Z,51.86
2022-08-20T04:02:35.609Z,52
2022-08-20T04:07:28.227Z,51.93
2022-08-20T04:12:20.851Z,51.76
2022-08-20T04:17:13.589Z,51.94
2022-08-20T04:22:06.013Z,52.02
2022-08-20T04:26:58.703Z,51.98
2022-08-20T04:31:51.031Z,52.32
2022-08-20T04:36:43.387Z,52.42
2022-08-20T04:41:35.769Z,53.51
2022-08-20T04:46:27.527Z,55.01
2022-08-20T04:51:18.985Z,57.73
2022-08-20T04:56:10.945Z,57.71
2022-08-20T05:01:03.446Z,58.3
2022-08-20T05:05:55.810Z,59.09
2022-08-20T05:10:48.813Z,57.55
2022-08-20T05:15:41.295Z,57.92
2022-08-20T05:20:33.742Z,58.23
2022-08-20T05:25:26.544Z,58.02
2022-08-20T05:30:18.552Z,60.54
2022-08-20T05:35:10.615Z,60.76
2022-08-20T05:40:04.400Z,58.71
2022-08-20T05:44:56.628Z,60.04
2022-08-20T05:49:48.776Z,59.32
2022-08-20T05:54:42.923Z,58.23
2022-08-20T05:59:35.210Z,59.98
2022-08-20T06:04:27.204Z,60.13
2022-08-20T06:09:28.235Z,58.72
2022-08-20T06:14:12.318Z,59.11
2022-08-20T06:19:03.885Z,61.64
2022-08-20T06:24:00.817Z,60.49
2022-08-20T06:28:49.885Z,60.67
2022-08-20T06:33:42.771Z,59.66
2022-08-20T06:38:35.297Z,59.58
2022-08-20T06:43:27.581Z,59.22
2022-08-20T06:48:19.870Z,59.82
2022-08-20T06:53:11.899Z,59.87
2022-08-20T06:58:04.936Z,59.17
2022-08-20T07:02:57.887Z,59.32
2022-08-20T07:07:49.844Z,59.24
2022-08-20T07:12:42.454Z,59.26
2022-08-20T07:17:35.090Z,59.34
2022-08-20T07:22:27.408Z,59.08
2022-08-20T07:27:19.570Z,59.9
2022-08-20T07:32:12.261Z,59.77
2022-08-20T07:37:04.041Z,59.74
2022-08-20T07:46:48.396Z,59.39
2022-08-20T07:56:33.629Z,58.55
2022-08-20T08:06:28.151Z,58.69
2022-08-20T08:11:10.945Z,60.56
2022-08-20T08:16:03.802Z,57.91
2022-08-20T08:25:49.751Z,57
2022-08-20T08:30:42.082Z,57.11
2022-08-20T08:35:34.194Z,57.13
2022-08-20T08:40:26.752Z,56.79
2022-08-20T08:45:19.616Z,56.73
2022-08-20T08:50:12.158Z,56.86
2022-08-20T08:55:04.927Z,56.83
2022-08-20T09:00:03.743Z,56.71
2022-08-20T09:04:49.589Z,57.03
2022-08-20T09:09:42.217Z,56.85
2022-08-20T09:14:34.924Z,56.89
2022-08-20T09:19:27.271Z,57.12
2022-08-20T09:24:19.846Z,56.9
2022-08-20T09:29:12.510Z,56.85
2022-08-20T09:34:04.981Z,56.98
2022-08-20T09:38:57.446Z,57.02
2022-08-20T09:43:46.927Z,57.05
2022-08-20T09:48:40.829Z,56.81
2022-08-20T09:53:33.508Z,57.11
2022-08-20T09:58:26.548Z,57.08
2022-08-20T10:03:19.282Z,57.3
2022-08-20T10:08:11.914Z,57.28
2022-08-20T10:13:04.457Z,57.22
2022-08-20T10:17:57.406Z,57
2022-08-20T10:22:50.007Z,57.29
2022-08-20T10:27:42.638Z,56.84
2022-08-20T10:32:35.398Z,56.69
2022-08-20T10:37:28.011Z,56.8
2022-08-20T10:42:20.499Z,56.79
2022-08-20T10:47:13.203Z,56.52
2022-08-20T10:52:05.908Z,56.57
2022-08-20T10:56:58.471Z,56.6
2022-08-20T11:01:51.102Z,56.99
2022-08-20T11:06:43.854Z,56.66
2022-08-20T11:11:36.536Z,56.23
2022-08-20T11:16:29.377Z,56.19
2022-08-20T11:21:21.835Z,56.04
2022-08-20T11:26:14.718Z,55.67
2022-08-20T11:31:07.514Z,55.74
2022-08-20T11:35:59.923Z,55.65
2022-08-20T11:40:52.776Z,55.37
2022-08-20T11:45:45.356Z,55.32
2022-08-20T11:50:38.205Z,55
2022-08-20T11:55:31.179Z,54.99
2022-08-20T12:00:29.366Z,54.93
2022-08-20T12:05:16.399Z,54.8
2022-08-20T12:10:09.048Z,54.43
2022-08-20T12:15:01.794Z,54.39
2022-08-20T12:19:54.502Z,54.33
2022-08-20T12:24:47.221Z,54.48
2022-08-20T12:29:39.813Z,54.21
2022-08-20T12:34:32.555Z,54.15
2022-08-20T12:39:25.418Z,55.61
2022-08-20T12:44:18.245Z,54.09
2022-08-20T12:49:10.879Z,54.01
2022-08-20T12:54:03.475Z,54.17
2022-08-20T12:58:56.237Z,55.43
2022-08-20T13:03:49.543Z,53.31
2022-08-20T13:08:42.305Z,54.7
2022-08-20T13:13:35.093Z,54.01
2022-08-20T13:18:27.779Z,54.55
2022-08-20T13:23:20.525Z,52.46
2022-08-20T13:28:12.914Z,52.71
2022-08-20T13:33:05.477Z,51.95
2022-08-20T13:37:58.149Z,52.63
2022-08-20T13:42:50.979Z,52.26
2022-08-20T13:47:43.531Z,51.41
2022-08-20T13:52:36.308Z,51.17
2022-08-20T13:57:28.917Z,51.94
2022-08-20T14:02:21.480Z,50.69
2022-08-20T14:12:06.486Z,50.12
2022-08-20T14:21:52.383Z,51.1
2022-08-20T14:31:37.595Z,51.99
2022-08-20T14:41:22.457Z,50.17
2022-08-20T14:46:14.587Z,50.38
2022-08-20T14:51:07.135Z,50.8
2022-08-20T14:55:59.801Z,50.57
2022-08-20T15:00:52.677Z,50.71
2022-08-20T15:05:45.400Z,50.74
2022-08-20T15:10:37.965Z,50.29
2022-08-20T15:15:30.665Z,50.1
2022-08-20T15:20:23.323Z,50.19
2022-08-20T15:25:15.531Z,50.38
2022-08-20T15:30:08.242Z,50.54
2022-08-20T15:35:00.989Z,50.27
2022-08-20T15:39:54.004Z,50.2
2022-08-20T15:44:46.454Z,50.99
2022-08-20T15:49:39.044Z,51.52
2022-08-20T15:54:31.682Z,51.59
2022-08-20T15:59:24.429Z,51.74
2022-08-20T16:04:16.955Z,51.99
2022-08-20T16:09:09.565Z,52.39
2022-08-20T16:14:02.390Z,52.57
2022-08-20T16:18:55.305Z,52.68
2022-08-20T16:23:47.948Z,53.27
2022-08-20T16:28:40.485Z,53.25
2022-08-20T16:33:33.173Z,53.68
2022-08-20T16:38:26.195Z,53.33
2022-08-20T16:43:18.964Z,53.52
2022-08-20T16:48:11.707Z,53.6
2022-08-20T16:53:04.329Z,53.87
2022-08-20T16:57:57.018Z,53.83
2022-08-20T17:02:49.737Z,53.99
2022-08-20T17:07:43.183Z,54.29
2022-08-20T17:12:34.867Z,54.25
2022-08-20T17:17:27.516Z,54.88
2022-08-20T17:22:20.306Z,54.73
2022-08-20T17:27:12.995Z,53.83
2022-08-20T17:32:05.792Z,53.79
2022-08-20T17:36:58.677Z,53.96
2022-08-20T17:41:51.640Z,54.56
2022-08-20T17:46:44.186Z,53.89
2022-08-20T17:51:37.253Z,54.95
2022-08-20T17:56:29.575Z,55.16
2022-08-20T18:01:22.314Z,53.76
2022-08-20T18:06:14.789Z,53.28
2022-08-20T18:11:07.259Z,52.78
2022-08-20T18:15:59.756Z,52.67
2022-08-20T18:20:52.788Z,52.67
2022-08-20T18:25:45.497Z,52.5
2022-08-20T18:30:38.327Z,52.41
2022-08-20T18:35:31.176Z,52.12
2022-08-20T18:40:23.899Z,52.21
2022-08-20T18:45:11.667Z,52.71
2022-08-20T18:50:04.150Z,52.85
2022-08-20T18:54:58.096Z,52.76
2022-08-20T18:59:50.847Z,53.2
2022-08-20T19:04:43.468Z,53.1
2022-08-20T19:09:36.078Z,53.12
2022-08-20T19:14:28.786Z,53.35
2022-08-20T19:19:21.491Z,53.46
2022-08-20T19:24:14.200Z,53.56
2022-08-20T19:29:06.943Z,53.72
2022-08-20T19:33:59.459Z,54.6
2022-08-20T19:38:52.390Z,54.32
2022-08-20T19:43:45.038Z,54.26
2022-08-20T19:48:37.534Z,54.4
2022-08-20T19:53:30.200Z,54.11
2022-08-20T19:58:26.471Z,54.28
2022-08-20T20:08:08.086Z,54.55
2022-08-20T20:17:53.669Z,54.75
2022-08-20T20:27:39.121Z,54.46
2022-08-20T20:37:25.342Z,54.47
2022-08-20T20:42:17.315Z,54.47
2022-08-20T20:47:09.934Z,54.4
2022-08-20T20:52:02.605Z,54.81
2022-08-20T20:56:55.391Z,54.78
2022-08-20T21:01:50.511Z,54.69
2022-08-20T21:06:40.515Z,55.06
2022-08-20T21:11:33.157Z,55.24
2022-08-20T21:16:25.644Z,55.27
2022-08-20T21:21:17.947Z,55.36
2022-08-20T21:26:10.566Z,55.4
2022-08-20T21:31:03.202Z,55.47
2022-08-20T21:35:55.720Z,55.34
2022-08-20T21:40:48.424Z,55.35
2022-08-20T21:45:41.111Z,55.32
2022-08-20T21:50:33.780Z,55.48
2022-08-20T21:55:26.315Z,55.21
2022-08-20T22:00:18.727Z,55.16
2022-08-20T22:05:11.410Z,54.95
2022-08-20T22:10:03.933Z,54.92
2022-08-20T22:14:56.711Z,54.83
2022-08-20T22:19:49.576Z,54.75
2022-08-20T22:24:42.225Z,54.85
2022-08-20T22:29:34.675Z,54.67
2022-08-20T22:34:27.652Z,54.49
2022-08-20T22:39:20.285Z,54.17
2022-08-20T22:44:12.980Z,53.98
2022-08-20T22:49:05.737Z,54.04
2022-08-20T22:53:58.402Z,53.91
2022-08-20T22:58:51.172Z,53.94
2022-08-20T23:03:44.010Z,53.83
2022-08-20T23:08:36.658Z,53.74
2022-08-20T23:13:29.297Z,53.91
2022-08-20T23:18:21.885Z,53.91
2022-08-20T23:23:14.216Z,53.88
2022-08-20T23:28:06.870Z,53.91
2022-08-20T23:33:01.452Z,53.94
2022-08-20T23:37:52.366Z,53.75
2022-08-20T23:42:44.929Z,53.6
2022-08-20T23:47:37.611Z,53.62
2022-08-20T23:52:30.078Z,53.75
2022-08-20T23:57:22.998Z,53.51
